createdAt,value
2023-04-25T00:00:02.085Z,83.6
2023-04-25T00:05:02.400Z,98.3
2023-04-25T00:20:01.573Z,152.7
2023-04-25T00:25:01.831Z,157.8
2023-04-25T00:35:01.678Z,156.8
2023-04-25T00:40:11.535Z,158.4
2023-04-25T00:50:01.582Z,109.3
2023-04-25T00:55:01.897Z,77.0
2023-04-25T01:00:01.450Z,69.4
2023-04-25T01:05:01.793Z,36.0
2023-04-25T01:10:01.489Z,30.5
2023-04-25T01:20:01.542Z,31.5
2023-04-25T01:25:06.651Z,18.5
2023-04-25T01:30:01.581Z,10.2
2023-04-25T01:35:02.628Z,10.6
2023-04-25T01:40:01.536Z,14.4
2023-04-25T01:45:01.641Z,13.4
2023-04-25T01:50:01.371Z,13.4
2023-04-25T02:00:06.727Z,26.4
2023-04-25T02:05:01.878Z,38.1
2023-04-25T02:10:01.431Z,41.4
2023-04-25T02:20:01.924Z,49.5
2023-04-25T02:25:01.623Z,46.2
2023-04-25T02:30:01.540Z,40.3
2023-04-25T02:35:01.531Z,27.8
2023-04-25T02:45:01.675Z,23.8
2023-04-25T02:50:01.524Z,14.6
2023-04-25T02:55:06.711Z,8.8
2023-04-25T03:00:02.707Z,8.7
2023-04-25T03:05:01.645Z,6.4
2023-04-25T03:10:02.641Z,8.9
2023-04-25T03:20:01.646Z,8.4
2023-04-25T03:25:01.710Z,7.8
2023-04-25T03:30:01.541Z,9.0
2023-04-25T03:35:06.682Z,6.8
2023-04-25T03:40:06.605Z,4.7
2023-04-25T03:50:06.639Z,6.1
2023-04-25T03:55:06.817Z,3.5
2023-04-25T04:00:01.740Z,3.5
2023-04-25T04:10:01.799Z,2.5
2023-04-25T04:40:07.685Z,6.8
2023-04-25T04:45:06.698Z,6.6
2023-04-25T07:05:01.663Z,2.8
2023-04-25T07:10:01.495Z,3.2
2023-04-25T09:10:02.321Z,0.8
2023-04-25T09:15:01.616Z,7.5
2023-04-25T09:20:01.498Z,12.9
2023-04-25T09:25:01.994Z,14.4
2023-04-25T09:30:01.524Z,15.2
2023-04-25T09:40:02.082Z,14.6
2023-04-25T09:45:01.647Z,11.4
2023-04-25T09:50:01.633Z,6.0
2023-04-25T09:55:01.679Z,4.6
2023-04-25T10:00:01.555Z,3.8
2023-04-25T10:05:02.812Z,3.7
2023-04-25T10:10:02.636Z,1.4
2023-04-25T10:15:01.700Z,20.0
2023-04-25T10:25:07.192Z,23.2
2023-04-25T10:30:01.570Z,31.2
2023-04-25T10:35:01.735Z,43.8
2023-04-25T10:55:01.491Z,43.6
2023-04-25T11:00:01.385Z,22.6
2023-04-25T11:05:06.813Z,17.1
2023-04-25T11:10:02.265Z,12.9
2023-04-25T11:15:01.548Z,10.3
2023-04-25T11:45:01.449Z,4.9
2023-04-25T11:50:01.192Z,4.9
2023-04-25T11:55:01.266Z,6.9
2023-04-25T12:00:01.066Z,12.6
2023-04-25T12:10:01.222Z,22.8
2023-04-25T12:15:01.325Z,25.4
2023-04-25T12:45:01.389Z,10.5
2023-04-25T12:50:02.417Z,7.9
2023-04-25T13:00:01.135Z,5.0
2023-04-25T13:15:01.341Z,7.6
2023-04-25T13:20:02.219Z,14.6
2023-04-25T13:25:06.222Z,24.1
2023-04-25T13:30:01.124Z,31.0
2023-04-25T13:35:09.324Z,38.8
2023-04-25T13:45:01.202Z,33.2
2023-04-25T13:50:01.117Z,24.8
2023-04-25T13:55:01.271Z,22.2
2023-04-25T14:00:01.097Z,14.4
2023-04-25T14:05:01.397Z,6.4
2023-04-25T14:10:07.083Z,5.4
2023-04-25T14:15:01.207Z,4.3
2023-04-25T15:30:01.179Z,24.8
2023-04-25T15:35:01.230Z,32.6
2023-04-25T15:40:01.401Z,37.0
2023-04-25T15:50:01.381Z,34.3
2023-04-25T15:55:01.172Z,28.7
2023-04-25T16:00:01.154Z,25.7
2023-04-25T16:05:02.519Z,24.8
2023-04-25T16:10:01.143Z,18.1
2023-04-25T16:15:01.218Z,14.9
2023-04-25T16:20:01.193Z,8.6
2023-04-25T16:25:02.173Z,3.8
2023-04-25T17:10:01.367Z,7.0
2023-04-25T17:15:01.296Z,11.9
2023-04-25T17:20:01.121Z,11.6
2023-04-25T17:25:01.314Z,11.8
2023-04-25T17:30:01.311Z,13.4
2023-04-25T17:50:02.250Z,2.9
2023-04-25T17:55:01.278Z,6.4
2023-04-25T18:00:01.269Z,5.4
2023-04-25T18:10:01.394Z,5.4
2023-04-25T18:50:01.147Z,9.6
2023-04-25T19:05:01.309Z,8.1
